Portada
METAR-TAF:

METAR-TAF

Aeroports :

Ahmedabad, Índia

latitud: 23-04N, longitud: 072-38E, altitud: 55 m

Observació

L'informe es va fer fa 36 minuts, a les 17:00 UTC
Vent 3 kt del Nord/Nord-Oest
Temperatura 20°C
Humitat 73%
Pressió 1014 hPa
Visibilitat: 4000 m
calitja

METAR: VAAH 041700Z 34003KT 4000 HZ NSC 20/15 Q1014 NOSIG

Hora: 23:06 (17:36 UTC)

Pronòstic

L'informe es va fer fa 36 minuts, a les 17:00 UTC
Pronòstic vàlid del 04 a les 18 UTC al 05 a les 03 UTC
Vent 4 kt del Nord
Visibilitat: 4000 m
fum, calitja
Evolucionant progressivament
l' 04 a les 22 UTC al 04 a les 24 UTC
Visibilitat: 3000 m
boirina, calitja
Evolucionant progressivament
l' 05 a les 01 UTC al 05 a les 03 UTC
Vent 6 kt del Nord-Est
Visibilitat: 1500 m
calitja

TAF: VAAH 041700Z 0418/0503 36004KT 4000 FU HZ NSC BECMG 0422/0424 3000 BR HZ BECMG 0501/0503 05006KT 1500 HZ

Observacions i pronòstics meteorològics de més de 4000 aeroports (METAR i TAF).

Les estacions disponibles són els punts grocs i vermells al mapa.

Posi el ratolí al punt desitjat per veure el nom de l'estació.

Feu clic per veure les observacions i els pronòstics meteorològics.

Per canviar el mapa: feu clic els botons verds amb una creu de color negre per apropar; al botó verd amb un guió per allunyar la imatge; o en les fletxes verdes per a mapes adjacents.


METAR-TAF: